Time;durP1;ratioP1;P1;durP2;ratioP2;P2;SDS_P1;SDS_P2;PMS_P1;PMS_P2;Temp;Humidity;BMP_temperature;BMP_pressure;BME280_temperature;BME280_humidity;BME280_pressure;Samples;Min_cycle;Max_cycle;Signal;HPM_P1;HPM_P2
2022/03/07 00:01:41;;;;;;;17.92;7.70;;;8.40;37.70;;;;;;6272504;28;20399;-68
2022/03/07 00:04:42;;;;;;;21.67;8.30;;;8.40;37.70;;;;;;6270446;28;20076;-69
2022/03/07 00:07:43;;;;;;;24.35;8.73;;;8.40;37.70;;;;;;6274769;28;20427;-68
2022/03/07 00:10:44;;;;;;;28.10;9.40;;;8.40;38.00;;;;;;6278547;28;20373;-67
2022/03/07 00:13:44;;;;;;;17.10;7.93;;;8.40;38.00;;;;;;6276637;28;20381;-68
2022/03/07 00:16:46;;;;;;;28.42;8.43;;;8.30;38.10;;;;;;6277004;28;20044;-67
2022/03/07 00:19:47;;;;;;;22.80;8.82;;;8.30;38.30;;;;;;6285241;28;20537;-67
2022/03/07 00:22:47;;;;;;;21.77;8.07;;;8.30;38.40;;;;;;6284787;28;20041;-67
2022/03/07 00:25:49;;;;;;;23.70;9.48;;;8.30;38.30;;;;;;6301451;28;20037;-68
2022/03/07 00:28:50;;;;;;;20.80;8.30;;;8.30;38.50;;;;;;6284857;28;20070;-68
2022/03/07 00:31:51;;;;;;;22.35;8.38;;;8.20;38.70;;;;;;6300262;28;20090;-69
2022/03/07 00:34:52;;;;;;;22.15;8.70;;;8.20;38.70;;;;;;6275898;28;20362;-67
2022/03/07 00:37:52;;;;;;;17.70;8.30;;;8.10;38.70;;;;;;6277679;28;20029;-68
2022/03/07 00:40:53;;;;;;;22.30;9.48;;;8.10;38.70;;;;;;6277125;28;20091;-68
2022/03/07 00:43:55;;;;;;;26.75;9.80;;;8.10;38.80;;;;;;6278733;28;20029;-67
2022/03/07 00:46:56;;;;;;;19.73;8.82;;;8.10;38.80;;;;;;6276199;28;20047;-68
2022/03/07 00:49:56;;;;;;;20.70;9.13;;;8.10;39.00;;;;;;6278924;28;20040;-67
2022/03/07 00:52:58;;;;;;;20.67;8.68;;;8.00;38.90;;;;;;6275933;28;20037;-68
2022/03/07 00:56:00;;;;;;;22.08;7.72;;;8.10;39.20;;;;;;6277098;28;20119;-67
2022/03/07 00:59:01;;;;;;;32.00;9.07;;;8.10;39.30;;;;;;6276999;28;20041;-68
2022/03/07 01:02:02;;;;;;;20.45;8.65;;;8.10;39.50;;;;;;6275645;28;20339;-68
2022/03/07 01:05:03;;;;;;;24.88;7.70;;;8.00;39.60;;;;;;6227025;28;20052;-68
2022/03/07 01:08:04;;;;;;;19.60;7.72;;;8.00;39.80;;;;;;6226597;28;20044;-68
2022/03/07 01:11:05;;;;;;;17.20;7.80;;;8.00;39.60;;;;;;6226540;28;20089;-68
2022/03/07 01:14:07;;;;;;;20.58;7.35;;;8.00;39.50;;;;;;6234683;28;20057;-68
2022/03/07 01:17:08;;;;;;;18.52;8.57;;;7.90;39.50;;;;;;6250848;28;20042;-68
2022/03/07 01:20:10;;;;;;;20.33;8.25;;;8.00;39.50;;;;;;6261511;28;20049;-68
2022/03/07 01:23:11;;;;;;;28.95;8.93;;;7.90;39.40;;;;;;6275313;28;20045;-68
2022/03/07 01:26:12;;;;;;;23.48;9.20;;;7.90;40.00;;;;;;6275208;28;20044;-68
2022/03/07 01:29:13;;;;;;;17.75;7.47;;;7.90;39.60;;;;;;6258588;28;20382;-67
2022/03/07 01:32:14;;;;;;;22.33;8.15;;;7.90;39.70;;;;;;6275806;28;20037;-67
2022/03/07 01:35:14;;;;;;;21.83;8.32;;;7.80;39.80;;;;;;6276031;28;20115;-67
2022/03/07 01:38:15;;;;;;;17.17;7.80;;;7.80;39.90;;;;;;6275046;28;20033;-69
2022/03/07 01:41:17;;;;;;;25.38;8.80;;;7.80;40.00;;;;;;6275139;28;20449;-68
2022/03/07 01:44:24;;;;;;;20.25;9.80;;;7.80;40.00;;;;;;6275740;28;20335;-69
2022/03/07 01:47:25;;;;;;;18.90;7.32;;;7.70;40.00;;;;;;6275500;28;20171;-69
2022/03/07 01:50:27;;;;;;;20.67;8.27;;;7.70;40.10;;;;;;6273977;28;20037;-68
2022/03/07 01:53:28;;;;;;;24.77;9.18;;;7.70;40.20;;;;;;6257924;28;20041;-68
2022/03/07 01:56:30;;;;;;;25.00;8.23;;;7.70;40.30;;;;;;6274180;28;20127;-68
2022/03/07 01:59:33;;;;;;;17.95;7.55;;;7.60;40.30;;;;;;6274159;28;20469;-68
2022/03/07 02:02:34;;;;;;;19.23;8.20;;;7.60;40.50;;;;;;6274831;28;20191;-67
2022/03/07 02:05:36;;;;;;;19.83;7.82;;;7.60;40.60;;;;;;6273862;28;20071;-68
2022/03/07 02:08:42;;;;;;;23.25;8.27;;;7.60;40.90;;;;;;6273002;28;20037;-67
2022/03/07 02:11:49;;;;;;;18.80;8.10;;;7.50;41.00;;;;;;6274043;28;20029;-67
2022/03/07 02:14:52;;;;;;;19.63;7.80;;;7.40;41.00;;;;;;6257898;28;20025;-67
2022/03/07 02:17:53;;;;;;;20.73;8.15;;;7.40;41.00;;;;;;6274922;28;20044;-67
2022/03/07 02:21:10;;;;;;;21.92;7.82;;;7.40;41.20;;;;;;6265383;28;20026;-66
2022/03/07 02:24:19;;;;;;;19.80;7.15;;;7.40;41.40;;;;;;6234285;28;20047;-68
2022/03/07 02:27:34;;;;;;;24.73;8.75;;;7.30;41.50;;;;;;6226528;28;20132;-67
2022/03/07 02:30:35;;;;;;;21.67;8.38;;;7.40;41.50;;;;;;6248885;28;20092;-69
2022/03/07 02:33:37;;;;;;;21.10;7.78;;;7.30;41.50;;;;;;6265737;28;20048;-70
2022/03/07 02:36:38;;;;;;;20.60;8.57;;;7.40;41.70;;;;;;6273315;28;20354;-68
2022/03/07 02:39:39;;;;;;;27.25;8.93;;;7.40;41.80;;;;;;6256854;28;20047;-68
2022/03/07 02:42:40;;;;;;;18.42;7.82;;;7.30;41.90;;;;;;6248752;28;20037;-68
2022/03/07 02:45:42;;;;;;;19.77;7.88;;;7.30;42.30;;;;;;6248395;28;20040;-67
2022/03/07 02:48:43;;;;;;;18.10;8.20;;;7.30;42.60;;;;;;6248775;28;20034;-68
2022/03/07 02:51:44;;;;;;;19.52;8.90;;;7.30;42.80;;;;;;6256764;28;20394;-69
2022/03/07 02:54:45;;;;;;;20.60;8.55;;;7.20;42.90;;;;;;6274374;28;20044;-69
2022/03/07 02:57:45;;;;;;;20.05;8.60;;;7.20;42.90;;;;;;6269751;28;20033;-67
2022/03/07 03:00:47;;;;;;;16.50;6.55;;;7.20;43.00;;;;;;6273379;28;20029;-68
2022/03/07 03:03:48;;;;;;;22.17;8.68;;;7.20;43.00;;;;;;6280251;28;20513;-68
2022/03/07 03:06:48;;;;;;;24.35;9.07;;;7.10;43.00;;;;;;6271293;28;20047;-67
2022/03/07 03:09:49;;;;;;;30.17;9.20;;;7.10;42.80;;;;;;6248641;28;20362;-68
2022/03/07 03:12:50;;;;;;;17.23;8.57;;;7.10;42.80;;;;;;6248753;28;20065;-68
2022/03/07 03:15:53;;;;;;;16.88;7.60;;;7.10;42.80;;;;;;6248813;28;20448;-68
2022/03/07 03:18:54;;;;;;;26.98;9.15;;;7.10;42.90;;;;;;6232326;28;20048;-67
2022/03/07 03:21:55;;;;;;;25.30;9.57;;;7.10;43.00;;;;;;6272484;28;20036;-67
2022/03/07 03:24:55;;;;;;;21.20;8.82;;;7.10;43.10;;;;;;6273628;28;20518;-67
2022/03/07 03:27:56;;;;;;;24.00;9.02;;;7.00;43.10;;;;;;6273726;28;20039;-68
2022/03/07 03:30:57;;;;;;;21.45;8.10;;;7.00;43.20;;;;;;6273691;28;20048;-67
2022/03/07 03:33:58;;;;;;;23.15;8.68;;;7.00;43.20;;;;;;6274547;28;20094;-67
2022/03/07 03:36:59;;;;;;;25.63;7.88;;;7.00;43.20;;;;;;6272324;28;20043;-68
2022/03/07 03:40:00;;;;;;;19.65;7.90;;;7.00;43.20;;;;;;6272321;28;20033;-68
2022/03/07 03:43:01;;;;;;;20.30;8.05;;;7.00;43.10;;;;;;6251091;28;20038;-68
2022/03/07 03:46:02;;;;;;;19.15;7.65;;;7.00;43.10;;;;;;6253729;28;20041;-68
2022/03/07 03:49:04;;;;;;;23.13;9.20;;;7.00;43.20;;;;;;6262037;28;20036;-68
2022/03/07 03:52:06;;;;;;;18.30;7.97;;;7.00;43.40;;;;;;6260378;28;20120;-67
2022/03/07 03:55:10;;;;;;;18.73;7.68;;;7.00;43.60;;;;;;6277577;28;20498;-67
2022/03/07 03:58:11;;;;;;;23.80;8.85;;;7.00;43.60;;;;;;6276835;28;20049;-67
2022/03/07 04:01:12;;;;;;;17.90;8.20;;;7.00;43.70;;;;;;6252326;28;20347;-67
2022/03/07 04:04:13;;;;;;;22.52;8.38;;;7.00;43.80;;;;;;6255561;28;20033;-67
2022/03/07 04:07:15;;;;;;;17.88;7.35;;;7.00;44.00;;;;;;6260443;28;20044;-68
2022/03/07 04:10:15;;;;;;;21.33;8.20;;;7.00;44.10;;;;;;6277216;28;20116;-68
2022/03/07 04:13:16;;;;;;;20.15;7.63;;;7.00;44.10;;;;;;6277005;28;20041;-67
2022/03/07 04:16:17;;;;;;;19.50;8.23;;;7.00;44.20;;;;;;6276700;28;20045;-68
2022/03/07 04:19:18;;;;;;;24.88;8.98;;;6.90;44.10;;;;;;6251947;28;20107;-68
2022/03/07 04:22:19;;;;;;;20.15;8.35;;;6.90;44.20;;;;;;6253190;28;20033;-68
2022/03/07 04:25:20;;;;;;;19.88;7.68;;;6.90;44.40;;;;;;6243522;28;20044;-68
2022/03/07 04:28:20;;;;;;;17.95;7.57;;;6.90;44.40;;;;;;6276568;28;20354;-68
2022/03/07 04:31:22;;;;;;;17.00;7.53;;;6.90;44.30;;;;;;6277477;28;20381;-68
2022/03/07 04:34:23;;;;;;;22.85;7.63;;;6.80;44.00;;;;;;6256708;28;20091;-68
2022/03/07 04:37:24;;;;;;;14.35;6.72;;;6.80;43.90;;;;;;6252977;28;20037;-68
2022/03/07 04:40:25;;;;;;;18.92;8.00;;;6.80;44.00;;;;;;6251781;28;20043;-68
2022/03/07 04:43:25;;;;;;;15.98;7.07;;;6.70;43.90;;;;;;6251363;28;20038;-68
2022/03/07 04:46:27;;;;;;;23.08;8.55;;;6.70;44.00;;;;;;6252757;28;20049;-68
2022/03/07 04:49:28;;;;;;;15.23;7.20;;;6.60;44.00;;;;;;6257655;28;20044;-68
2022/03/07 04:52:28;;;;;;;21.13;7.90;;;6.60;44.30;;;;;;6276838;28;20068;-68
2022/03/07 04:55:29;;;;;;;37.75;8.38;;;6.60;44.30;;;;;;6255905;28;20064;-68
2022/03/07 04:58:30;;;;;;;22.67;7.75;;;6.50;44.60;;;;;;6234801;28;20356;-68
2022/03/07 05:01:31;;;;;;;18.40;8.50;;;6.50;45.10;;;;;;6252042;28;20050;-68
2022/03/07 05:04:32;;;;;;;23.42;8.88;;;6.50;45.50;;;;;;6274820;28;20064;-69
2022/03/07 05:07:33;;;;;;;22.90;8.10;;;6.50;45.80;;;;;;6251394;28;20107;-68
2022/03/07 05:10:34;;;;;;;19.92;8.18;;;6.40;46.00;;;;;;6250676;28;20048;-69
2022/03/07 05:13:34;;;;;;;28.88;9.38;;;6.40;46.20;;;;;;6250680;28;20053;-68
2022/03/07 05:16:35;;;;;;;32.70;9.25;;;6.40;46.20;;;;;;6259842;28;20102;-69
2022/03/07 05:19:36;;;;;;;17.88;7.78;;;6.40;46.30;;;;;;6274092;28;20040;-69
2022/03/07 05:22:38;;;;;;;24.25;8.48;;;6.40;46.50;;;;;;6233938;28;20145;-69
2022/03/07 05:25:39;;;;;;;20.95;8.73;;;6.30;46.50;;;;;;6250896;28;20060;-68
2022/03/07 05:28:39;;;;;;;21.48;8.80;;;6.30;46.70;;;;;;6250499;28;20041;-67
2022/03/07 05:31:40;;;;;;;23.45;9.05;;;6.20;46.80;;;;;;6250620;28;20033;-68
2022/03/07 05:34:41;;;;;;;17.70;8.70;;;6.20;46.90;;;;;;6231562;28;20092;-68
2022/03/07 05:37:42;;;;;;;20.15;8.27;;;6.10;47.00;;;;;;6259505;28;20033;-68
2022/03/07 05:40:43;;;;;;;24.50;10.00;;;6.10;47.10;;;;;;6275189;28;20044;-68
2022/03/07 05:43:44;;;;;;;21.38;8.32;;;6.10;47.30;;;;;;6275599;28;20044;-68
2022/03/07 05:46:45;;;;;;;22.08;8.98;;;6.20;47.20;;;;;;6257888;28;20473;-68
2022/03/07 05:49:46;;;;;;;20.52;8.55;;;6.10;47.20;;;;;;6273993;28;20033;-68
2022/03/07 05:52:47;;;;;;;20.20;7.05;;;6.10;47.00;;;;;;6275767;28;20399;-68
2022/03/07 05:55:49;;;;;;;22.02;9.20;;;6.10;47.00;;;;;;6273863;28;20036;-68
2022/03/07 05:58:50;;;;;;;23.42;8.93;;;6.00;47.10;;;;;;6274299;28;20351;-68
2022/03/07 06:01:51;;;;;;;29.35;11.73;;;6.00;47.30;;;;;;6275554;28;20033;-67
2022/03/07 06:04:52;;;;;;;21.92;9.43;;;6.00;47.30;;;;;;6249450;28;20438;-68
2022/03/07 06:07:53;;;;;;;24.17;9.38;;;5.90;47.40;;;;;;6249504;28;20103;-70
2022/03/07 06:10:54;;;;;;;22.25;9.05;;;5.90;47.60;;;;;;6248942;28;20038;-69
2022/03/07 06:13:54;;;;;;;19.70;8.85;;;5.80;47.80;;;;;;6272655;28;20041;-68
2022/03/07 06:16:55;;;;;;;29.17;8.68;;;5.80;47.90;;;;;;6273999;28;20037;-68
2022/03/07 06:19:56;;;;;;;19.02;8.48;;;5.80;48.00;;;;;;6272609;28;20060;-68
2022/03/07 06:22:57;;;;;;;23.58;9.00;;;5.80;48.10;;;;;;6274833;28;20055;-67
2022/03/07 06:25:58;;;;;;;20.13;8.07;;;5.70;48.10;;;;;;6274660;28;20029;-69
2022/03/07 06:29:00;;;;;;;25.80;9.65;;;5.80;48.10;;;;;;6273866;28;20433;-69
2022/03/07 06:32:01;;;;;;;22.67;9.65;;;5.80;48.00;;;;;;6274305;28;20037;-68
2022/03/07 06:35:04;;;;;;;21.92;10.43;;;5.90;48.00;;;;;;6274500;28;20028;-68
2022/03/07 06:38:05;;;;;;;20.17;6.97;;;5.90;48.00;;;;;;6273188;28;20037;-68
2022/03/07 06:41:07;;;;;;;20.15;8.93;;;5.90;48.00;;;;;;6273432;28;20562;-69
2022/03/07 06:44:08;;;;;;;17.70;8.75;;;5.90;48.20;;;;;;6273713;28;20407;-69
2022/03/07 06:47:09;;;;;;;26.98;9.75;;;5.80;48.30;;;;;;6273881;28;20036;-68
2022/03/07 06:50:11;;;;;;;33.08;9.63;;;5.80;48.50;;;;;;6248794;28;20053;-70
2022/03/07 06:53:12;;;;;;;20.98;9.10;;;5.80;48.50;;;;;;6244612;28;20042;-68
2022/03/07 06:56:14;;;;;;;23.95;10.07;;;5.80;48.50;;;;;;6231730;28;20176;-69
2022/03/07 06:59:14;;;;;;;24.85;9.27;;;5.80;48.50;;;;;;6248810;28;20045;-68
2022/03/07 07:02:16;;;;;;;30.90;9.45;;;5.80;48.50;;;;;;6249093;28;20059;-68
2022/03/07 07:05:17;;;;;;;25.25;9.75;;;5.80;48.40;;;;;;6247391;28;20060;-68
2022/03/07 07:08:17;;;;;;;37.85;11.48;;;5.80;48.50;;;;;;6248019;28;20037;-69
2022/03/07 07:11:18;;;;;;;20.95;8.75;;;5.90;48.50;;;;;;6249138;28;20037;-68
2022/03/07 07:14:19;;;;;;;20.38;8.80;;;5.90;48.50;;;;;;6231626;28;20045;-68
2022/03/07 07:17:20;;;;;;;21.48;9.40;;;6.00;48.50;;;;;;6246526;28;20045;-68
2022/03/07 07:20:21;;;;;;;24.98;9.70;;;6.00;48.50;;;;;;6247686;28;20048;-68
2022/03/07 07:23:22;;;;;;;22.40;8.77;;;6.10;48.40;;;;;;6256445;28;20421;-69
2022/03/07 07:26:23;;;;;;;20.83;8.68;;;6.10;48.30;;;;;;6255725;28;20066;-69
2022/03/07 07:29:24;;;;;;;27.75;9.10;;;6.20;48.00;;;;;;6271668;28;20036;-68
2022/03/07 07:32:25;;;;;;;31.10;10.95;;;6.30;48.00;;;;;;6273592;28;20442;-68
2022/03/07 07:35:26;;;;;;;22.85;9.25;;;6.30;47.90;;;;;;6271698;28;20029;-68
2022/03/07 07:38:27;;;;;;;28.42;9.90;;;6.40;47.90;;;;;;6264924;28;20037;-68
2022/03/07 07:41:28;;;;;;;31.15;11.50;;;6.30;47.80;;;;;;6247097;28;20111;-68
2022/03/07 07:44:29;;;;;;;28.35;9.80;;;6.50;47.90;;;;;;6247764;28;20037;-68
2022/03/07 07:47:29;;;;;;;24.60;10.07;;;6.60;47.90;;;;;;6247824;28;20119;-68
2022/03/07 07:50:31;;;;;;;30.65;9.73;;;6.70;48.40;;;;;;6246282;28;20034;-69
2022/03/07 07:53:32;;;;;;;31.00;11.20;;;6.70;47.50;;;;;;6256263;28;20048;-70
2022/03/07 07:56:33;;;;;;;34.22;11.63;;;6.80;47.30;;;;;;6255446;28;20037;-69
2022/03/07 07:59:34;;;;;;;30.77;9.93;;;6.70;47.20;;;;;;6271083;28;20029;-68
2022/03/07 08:02:35;;;;;;;49.28;11.10;;;6.80;47.50;;;;;;6271964;28;20025;-68
2022/03/07 08:05:36;;;;;;;34.10;10.05;;;6.90;47.00;;;;;;6272288;28;20059;-69
2022/03/07 08:08:37;;;;;;;30.60;10.27;;;7.00;46.70;;;;;;6271747;28;20124;-68
2022/03/07 08:11:38;;;;;;;28.85;11.20;;;7.10;46.80;;;;;;6271771;28;20393;-67
2022/03/07 08:14:38;;;;;;;32.63;11.82;;;7.20;45.80;;;;;;6271908;28;20044;-68
2022/03/07 08:17:50;;;;;;;33.78;11.10;;;7.30;45.50;;;;;;6271781;28;20037;-70
2022/03/07 08:20:51;;;;;;;27.08;10.60;;;7.30;45.30;;;;;;6271797;28;20037;-70
2022/03/07 08:23:54;;;;;;;30.60;11.35;;;7.30;45.20;;;;;;6271316;28;20139;-68
2022/03/07 08:26:55;;;;;;;26.60;9.82;;;7.40;45.20;;;;;;6254949;28;20045;-68
2022/03/07 08:29:55;;;;;;;25.08;10.82;;;7.50;45.00;;;;;;6258308;28;20040;-68
2022/03/07 08:32:57;;;;;;;28.55;9.48;;;7.70;44.80;;;;;;6276548;28;20041;-68
2022/03/07 08:35:58;;;;;;;25.90;9.95;;;7.80;44.50;;;;;;6259212;28;20057;-68
2022/03/07 08:38:59;;;;;;;40.45;10.90;;;8.00;44.10;;;;;;6276051;28;20039;-68
2022/03/07 08:42:00;;;;;;;25.92;11.48;;;8.10;43.70;;;;;;6276621;28;20084;-68
2022/03/07 08:45:01;;;;;;;21.20;9.65;;;8.20;43.30;;;;;;6275549;28;20029;-69
2022/03/07 08:48:02;;;;;;;39.67;12.00;;;8.30;43.00;;;;;;6267737;28;20037;-68
2022/03/07 08:51:03;;;;;;;24.90;10.77;;;8.40;42.80;;;;;;6250560;28;20030;-68
2022/03/07 08:54:04;;;;;;;26.15;11.55;;;8.60;42.50;;;;;;6251846;28;20048;-68
2022/03/07 08:57:05;;;;;;;29.05;11.40;;;8.60;43.00;;;;;;6250296;28;20382;-68
2022/03/07 09:00:09;;;;;;;29.80;11.15;;;8.80;42.30;;;;;;6250377;28;20126;-68
2022/03/07 09:03:10;;;;;;;28.50;10.45;;;8.90;42.20;;;;;;6247064;28;20057;-68
2022/03/07 09:06:10;;;;;;;32.47;12.25;;;9.00;42.10;;;;;;6274594;28;20037;-68
2022/03/07 09:09:11;;;;;;;36.92;11.80;;;9.20;41.80;;;;;;6258607;28;20044;-68
2022/03/07 09:12:12;;;;;;;25.42;11.55;;;9.20;41.60;;;;;;6275294;28;20043;-68
2022/03/07 09:15:14;;;;;;;41.17;12.70;;;9.30;41.70;;;;;;6275244;28;20158;-68
2022/03/07 09:18:15;;;;;;;30.67;11.63;;;9.30;41.70;;;;;;6274833;28;21027;-67
2022/03/07 09:21:16;;;;;;;26.33;10.95;;;9.50;41.70;;;;;;6266467;28;20043;-68
2022/03/07 09:24:17;;;;;;;33.50;12.35;;;9.60;41.50;;;;;;6274829;28;20037;-68
2022/03/07 09:27:19;;;;;;;26.77;11.68;;;9.70;41.00;;;;;;6275556;28;20128;-68
2022/03/07 09:30:20;;;;;;;26.88;11.50;;;9.70;40.80;;;;;;6274630;28;20469;-68
2022/03/07 09:33:21;;;;;;;31.77;12.32;;;9.80;41.40;;;;;;6275235;28;20045;-68
2022/03/07 09:36:22;;;;;;;32.25;11.48;;;9.80;40.80;;;;;;6275440;28;20035;-69
2022/03/07 09:39:22;;;;;;;23.70;9.52;;;9.90;40.50;;;;;;6274397;28;20296;-68
2022/03/07 09:42:23;;;;;;;28.13;11.52;;;10.00;40.30;;;;;;6274495;28;20045;-68
2022/03/07 09:45:24;;;;;;;31.27;11.45;;;10.00;39.80;;;;;;6274039;28;20033;-69
2022/03/07 09:48:26;;;;;;;23.10;9.48;;;10.10;39.70;;;;;;6274267;28;20037;-68
2022/03/07 09:51:27;;;;;;;23.98;10.35;;;10.10;39.20;;;;;;6273965;28;20075;-69
2022/03/07 09:54:28;;;;;;;23.70;10.23;;;10.10;38.90;;;;;;6275134;28;20389;-69
2022/03/07 09:57:29;;;;;;;41.33;13.95;;;10.20;38.90;;;;;;6274579;28;20029;-69
2022/03/07 10:00:30;;;;;;;43.08;17.92;;;10.20;38.80;;;;;;6273938;28;20393;-69
2022/03/07 10:03:31;;;;;;;35.67;15.38;;;10.30;38.70;;;;;;6275533;28;20047;-69
2022/03/07 10:06:32;;;;;;;27.77;12.98;;;10.30;38.70;;;;;;6273253;28;20041;-69
2022/03/07 10:09:34;;;;;;;29.77;12.30;;;10.40;38.70;;;;;;6274886;28;20037;-68
2022/03/07 10:12:48;;;;;;;32.67;12.45;;;10.40;38.80;;;;;;6274234;28;20048;-68
2022/03/07 10:16:05;;;;;;;33.53;11.90;;;10.60;38.70;;;;;;6274979;28;20029;-68
2022/03/07 10:19:09;;;;;;;31.27;13.32;;;10.70;38.50;;;;;;6273386;28;20454;-67
2022/03/07 10:22:15;;;;;;;28.33;11.13;;;10.70;38.10;;;;;;6272323;28;20048;-68
2022/03/07 10:25:21;;;;;;;29.33;11.20;;;10.80;38.10;;;;;;6273895;28;20085;-68
2022/03/07 10:28:34;;;;;;;41.28;16.42;;;10.80;37.90;;;;;;6273079;28;20102;-68
2022/03/07 10:31:37;;;;;;;35.60;14.18;;;10.80;37.70;;;;;;6274199;28;20037;-68
2022/03/07 10:34:38;;;;;;;22.75;10.95;;;10.90;37.60;;;;;;6275079;28;20049;-69
2022/03/07 10:37:39;;;;;;;35.45;13.63;;;11.10;37.50;;;;;;6272576;28;20033;-68
2022/03/07 10:40:43;;;;;;;26.27;11.43;;;11.50;37.10;;;;;;6272996;28;20045;-69
2022/03/07 10:43:48;;;;;;;24.50;10.02;;;11.90;36.40;;;;;;6273987;28;20048;-69
2022/03/07 10:46:49;;;;;;;25.00;11.00;;;12.20;34.70;;;;;;6272663;28;20120;-68
2022/03/07 10:49:55;;;;;;;47.75;17.65;;;12.40;34.00;;;;;;6256264;28;20041;-68
2022/03/07 10:53:04;;;;;;;42.22;17.27;;;12.60;33.80;;;;;;6273544;28;20143;-68
2022/03/07 10:56:05;;;;;;;28.60;11.63;;;12.90;33.50;;;;;;6270483;28;20107;-69
2022/03/07 10:59:11;;;;;;;30.05;12.60;;;13.10;33.00;;;;;;6272377;28;20041;-68
2022/03/07 11:02:16;;;;;;;32.75;11.77;;;13.30;33.70;;;;;;6274208;28;20239;-69
2022/03/07 11:05:18;;;;;;;31.08;13.38;;;13.50;32.50;;;;;;6272485;28;20103;-69
2022/03/07 11:08:20;;;;;;;33.75;12.32;;;13.60;31.70;;;;;;6273245;28;20051;-69
2022/03/07 11:11:22;;;;;;;27.30;11.55;;;13.70;31.70;;;;;;6271816;28;20064;-69
2022/03/07 11:14:25;;;;;;;26.13;11.85;;;13.90;31.20;;;;;;6255461;28;20033;-69
2022/03/07 11:17:27;;;;;;;31.33;12.25;;;14.00;30.80;;;;;;6271938;28;20203;-70
2022/03/07 11:20:28;;;;;;;28.30;11.68;;;14.20;30.70;;;;;;6271001;28;20389;-69
2022/03/07 11:23:29;;;;;;;38.65;13.30;;;14.30;30.20;;;;;;6271944;28;20331;-69
2022/03/07 11:26:31;;;;;;;38.38;13.52;;;14.40;30.00;;;;;;6254722;28;20112;-69
2022/03/07 11:29:38;;;;;;;31.20;14.63;;;14.60;30.00;;;;;;6255210;28;20029;-70
2022/03/07 11:32:39;;;;;;;30.02;12.88;;;14.90;29.90;;;;;;6274008;28;20033;-69
2022/03/07 11:35:44;;;;;;;27.00;11.70;;;15.10;29.50;;;;;;6271954;28;20484;-70
2022/03/07 11:38:59;;;;;;;41.88;13.10;;;15.30;29.10;;;;;;6255864;28;20041;-69
2022/03/07 11:42:18;;;;;;;42.20;14.70;;;15.40;29.00;;;;;;6247463;28;20029;-69
2022/03/07 11:45:22;;;;;;;28.67;12.97;;;15.70;29.30;;;;;;6264382;28;20033;-69
2022/03/07 11:48:23;;;;;;;40.83;13.60;;;16.10;29.20;;;;;;6269541;28;20323;-69
2022/03/07 11:51:27;;;;;;;33.60;13.98;;;16.60;28.60;;;;;;6270718;28;20124;-69
2022/03/07 11:54:29;;;;;;;29.67;12.75;;;17.00;28.10;;;;;;6251241;28;20405;-69
2022/03/07 11:57:35;;;;;;;27.30;12.02;;;17.40;27.60;;;;;;6269959;28;20125;-70
2022/03/07 12:00:38;;;;;;;33.38;12.60;;;17.90;27.00;;;;;;6265230;28;20049;-69
2022/03/07 12:03:49;;;;;;;31.80;13.20;;;18.30;26.30;;;;;;6262499;28;20033;-70
2022/03/07 12:06:54;;;;;;;34.15;14.10;;;18.80;25.70;;;;;;6267280;28;20158;-71
2022/03/07 12:10:06;;;;;;;27.92;12.63;;;19.20;24.90;;;;;;6228692;28;20041;-70
2022/03/07 12:13:11;;;;;;;23.35;11.30;;;19.50;24.80;;;;;;6284569;28;20358;-69
2022/03/07 12:16:22;;;;;;;28.08;12.15;;;19.60;24.00;;;;;;6246850;28;20030;-70
2022/03/07 12:19:23;;;;;;;28.08;12.18;;;19.70;24.10;;;;;;6275234;28;20458;-69
2022/03/07 12:22:26;;;;;;;28.02;12.32;;;19.90;24.20;;;;;;6273926;28;20045;-69
2022/03/07 12:25:27;;;;;;;28.08;12.40;;;20.30;24.00;;;;;;6273743;28;20037;-69
2022/03/07 12:28:31;;;;;;;26.55;12.10;;;20.80;23.30;;;;;;6275826;28;20052;-69
2022/03/07 12:31:31;;;;;;;29.73;13.35;;;21.20;23.00;;;;;;6275183;28;20045;-69
2022/03/07 12:34:35;;;;;;;28.40;14.07;;;21.70;22.60;;;;;;6252252;28;20044;-70
2022/03/07 12:37:37;;;;;;;31.02;13.57;;;22.10;22.10;;;;;;6248192;28;20029;-69
2022/03/07 12:40:39;;;;;;;26.83;13.10;;;22.50;21.80;;;;;;6231575;28;20047;-69
2022/03/07 12:43:40;;;;;;;34.30;13.68;;;22.90;21.40;;;;;;6238910;28;20060;-69
2022/03/07 12:46:47;;;;;;;28.88;13.35;;;23.30;21.10;;;;;;6249330;28;20037;-70
2022/03/07 12:49:50;;;;;;;29.23;13.35;;;23.80;20.90;;;;;;6233229;28;20041;-70
2022/03/07 12:52:51;;;;;;;30.02;14.07;;;24.20;20.60;;;;;;6265871;28;20107;-70
2022/03/07 12:56:01;;;;;;;24.35;13.07;;;24.40;20.10;;;;;;6273500;28;20075;-70
2022/03/07 12:59:03;;;;;;;28.58;13.15;;;24.20;19.70;;;;;;6267371;28;20028;-70
2022/03/07 13:02:04;;;;;;;35.58;13.93;;;23.80;19.90;;;;;;6275940;28;20032;-70
2022/03/07 13:05:09;;;;;;;29.50;12.18;;;23.90;19.90;;;;;;6273541;28;20037;-71
2022/03/07 13:08:10;;;;;;;26.33;12.07;;;23.90;19.60;;;;;;6274475;28;20033;-70
2022/03/07 13:11:11;;;;;;;23.73;11.68;;;23.60;19.40;;;;;;6273728;28;20052;-69
2022/03/07 13:14:23;;;;;;;25.60;12.45;;;23.50;19.20;;;;;;6274731;28;20048;-69
2022/03/07 13:17:24;;;;;;;37.72;11.52;;;22.80;19.50;;;;;;6255950;28;20025;-70
2022/03/07 13:20:25;;;;;;;30.42;12.32;;;22.10;19.90;;;;;;6272764;28;20090;-69
2022/03/07 13:23:29;;;;;;;27.33;13.00;;;21.20;20.20;;;;;;6256343;28;20101;-69
2022/03/07 13:26:31;;;;;;;26.17;12.30;;;20.50;20.80;;;;;;6273431;28;20025;-69
2022/03/07 13:29:34;;;;;;;26.85;11.93;;;19.80;21.30;;;;;;6273595;28;20450;-69
2022/03/07 13:32:41;;;;;;;25.67;11.20;;;19.30;21.80;;;;;;6273939;28;20182;-69
2022/03/07 13:35:42;;;;;;;32.88;11.30;;;18.80;22.20;;;;;;6273620;28;20029;-70
2022/03/07 13:38:42;;;;;;;22.83;11.25;;;18.30;22.50;;;;;;6274357;28;20025;-70
2022/03/07 13:42:10;;;;;;;29.55;11.52;;;17.90;22.90;;;;;;6273331;28;20029;-69
2022/03/07 13:45:14;;;;;;;23.50;11.18;;;17.50;23.30;;;;;;6272245;28;20053;-69
2022/03/07 13:48:15;;;;;;;24.40;10.55;;;17.20;23.60;;;;;;6274082;28;20029;-71
2022/03/07 13:51:16;;;;;;;27.35;11.90;;;17.00;23.90;;;;;;6272579;28;20036;-69
2022/03/07 13:54:17;;;;;;;28.83;12.00;;;16.90;24.00;;;;;;6273388;28;20041;-69
2022/03/07 13:57:18;;;;;;;27.73;12.05;;;16.70;24.10;;;;;;6273072;28;20041;-69
2022/03/07 14:00:24;;;;;;;28.15;11.13;;;16.60;24.30;;;;;;6273832;28;20041;-68
2022/03/07 14:03:26;;;;;;;25.75;10.93;;;16.40;24.50;;;;;;6273244;28;20446;-69
2022/03/07 14:06:29;;;;;;;29.65;11.80;;;16.40;24.60;;;;;;6272265;28;20041;-70
2022/03/07 14:09:30;;;;;;;24.85;10.27;;;16.40;24.60;;;;;;6273161;28;20060;-68
2022/03/07 14:12:35;;;;;;;25.10;11.13;;;16.30;24.70;;;;;;6273686;28;20385;-68
2022/03/07 14:15:38;;;;;;;25.75;10.65;;;16.30;24.80;;;;;;6272883;28;20135;-69
2022/03/07 14:18:39;;;;;;;26.70;11.18;;;16.30;24.90;;;;;;6273501;28;20088;-68
2022/03/07 14:21:40;;;;;;;23.42;10.00;;;16.30;25.00;;;;;;6271951;28;20078;-68
2022/03/07 14:24:41;;;;;;;26.33;11.30;;;16.30;25.00;;;;;;6272695;28;20124;-68
2022/03/07 14:27:42;;;;;;;29.17;10.57;;;16.30;25.00;;;;;;6255012;28;20036;-69
2022/03/07 14:30:43;;;;;;;32.22;11.75;;;16.20;25.00;;;;;;6273365;28;20032;-68
2022/03/07 14:33:45;;;;;;;21.00;10.30;;;16.20;25.10;;;;;;6274318;28;20043;-68
2022/03/07 14:36:46;;;;;;;22.83;10.48;;;16.20;25.20;;;;;;6271713;28;20178;-68
2022/03/07 14:39:47;;;;;;;32.60;11.77;;;16.20;25.20;;;;;;6254699;28;20100;-71
2022/03/07 14:42:49;;;;;;;23.02;10.23;;;16.10;25.30;;;;;;6272598;28;20361;-69
2022/03/07 14:45:50;;;;;;;31.13;10.82;;;16.10;25.40;;;;;;6271671;28;20029;-69
2022/03/07 14:48:51;;;;;;;24.25;10.30;;;16.10;25.40;;;;;;6270558;28;20075;-70
2022/03/07 14:51:52;;;;;;;27.25;10.73;;;16.10;25.50;;;;;;6255786;28;20033;-68
2022/03/07 14:54:53;;;;;;;26.88;10.95;;;16.10;25.50;;;;;;6246478;28;20055;-72
2022/03/07 14:57:54;;;;;;;24.05;10.52;;;16.10;25.60;;;;;;6246418;28;20462;-69
2022/03/07 15:00:55;;;;;;;26.65;10.90;;;16.00;25.50;;;;;;6248794;28;20030;-71
2022/03/07 15:03:56;;;;;;;27.05;11.40;;;16.00;25.60;;;;;;6267077;28;20036;-69
2022/03/07 15:06:57;;;;;;;25.88;11.13;;;15.90;25.60;;;;;;6254386;28;20122;-69
2022/03/07 15:09:59;;;;;;;28.65;11.38;;;15.90;25.70;;;;;;6271057;28;20207;-69
2022/03/07 15:13:00;;;;;;;25.08;10.38;;;15.80;25.70;;;;;;6272272;28;20115;-69
2022/03/07 15:16:01;;;;;;;28.60;11.00;;;15.90;25.90;;;;;;6271093;28;20035;-69
2022/03/07 15:19:04;;;;;;;28.95;11.45;;;16.00;25.90;;;;;;6271326;28;20473;-69
2022/03/07 15:22:05;;;;;;;21.05;10.05;;;15.80;25.90;;;;;;6252671;28;20044;-69
2022/03/07 15:25:08;;;;;;;22.23;9.73;;;15.80;25.90;;;;;;6270736;28;20363;-69
2022/03/07 15:28:08;;;;;;;22.92;10.45;;;15.80;26.00;;;;;;6270405;28;20113;-69
2022/03/07 15:31:09;;;;;;;25.02;11.30;;;15.80;26.10;;;;;;6270653;28;20033;-69
2022/03/07 15:34:11;;;;;;;24.10;10.48;;;15.80;26.20;;;;;;6271499;28;20097;-69
2022/03/07 15:37:12;;;;;;;30.40;11.27;;;15.80;26.30;;;;;;6271667;28;20446;-69